sensor_id;sensor_type;location;lat;lon;timestamp;P1;durP1;ratioP1;P2;durP2;ratioP2
14235;SDS011;7202;50.718;7.072;2023-11-19T00:00:20;1.02;;;0.50;;
14235;SDS011;7202;50.718;7.072;2023-11-19T00:02:49;1.77;;;0.50;;
14235;SDS011;7202;50.718;7.072;2023-11-19T00:05:19;1.77;;;0.70;;
14235;SDS011;7202;50.718;7.072;2023-11-19T00:07:48;4.97;;;0.55;;
14235;SDS011;7202;50.718;7.072;2023-11-19T00:10:16;2.92;;;0.70;;
14235;SDS011;7202;50.718;7.072;2023-11-19T00:12:47;4.70;;;0.70;;
14235;SDS011;7202;50.718;7.072;2023-11-19T00:15:17;3.75;;;0.80;;
14235;SDS011;7202;50.718;7.072;2023-11-19T00:17:46;1.17;;;0.60;;
14235;SDS011;7202;50.718;7.072;2023-11-19T00:20:17;1.38;;;0.60;;
14235;SDS011;7202;50.718;7.072;2023-11-19T00:22:48;0.60;;;0.60;;
14235;SDS011;7202;50.718;7.072;2023-11-19T00:25:18;1.05;;;0.55;;
14235;SDS011;7202;50.718;7.072;2023-11-19T00:27:48;1.83;;;0.90;;
14235;SDS011;7202;50.718;7.072;2023-11-19T00:30:17;1.25;;;0.57;;
14235;SDS011;7202;50.718;7.072;2023-11-19T00:32:46;0.63;;;0.50;;
14235;SDS011;7202;50.718;7.072;2023-11-19T00:35:14;1.17;;;0.50;;
14235;SDS011;7202;50.718;7.072;2023-11-19T00:37:43;0.80;;;0.60;;
14235;SDS011;7202;50.718;7.072;2023-11-19T00:40:16;2.97;;;0.63;;
14235;SDS011;7202;50.718;7.072;2023-11-19T00:42:45;4.25;;;0.60;;
14235;SDS011;7202;50.718;7.072;2023-11-19T00:45:14;1.75;;;0.70;;
14235;SDS011;7202;50.718;7.072;2023-11-19T00:47:43;1.27;;;0.75;;
14235;SDS011;7202;50.718;7.072;2023-11-19T00:50:12;0.85;;;0.45;;
14235;SDS011;7202;50.718;7.072;2023-11-19T00:52:40;2.40;;;0.82;;
14235;SDS011;7202;50.718;7.072;2023-11-19T00:55:09;1.98;;;0.70;;
14235;SDS011;7202;50.718;7.072;2023-11-19T00:57:39;3.08;;;0.82;;
14235;SDS011;7202;50.718;7.072;2023-11-19T01:00:08;2.40;;;0.90;;
14235;SDS011;7202;50.718;7.072;2023-11-19T01:02:46;1.15;;;0.70;;
14235;SDS011;7202;50.718;7.072;2023-11-19T01:05:17;0.90;;;0.38;;
14235;SDS011;7202;50.718;7.072;2023-11-19T01:07:49;0.43;;;0.40;;
14235;SDS011;7202;50.718;7.072;2023-11-19T01:10:20;1.58;;;0.43;;
14235;SDS011;7202;50.718;7.072;2023-11-19T01:12:50;3.10;;;0.25;;
14235;SDS011;7202;50.718;7.072;2023-11-19T01:15:19;0.73;;;0.38;;
14235;SDS011;7202;50.718;7.072;2023-11-19T01:17:48;0.85;;;0.40;;
14235;SDS011;7202;50.718;7.072;2023-11-19T01:20:20;4.30;;;0.40;;
14235;SDS011;7202;50.718;7.072;2023-11-19T01:22:49;0.93;;;0.45;;
14235;SDS011;7202;50.718;7.072;2023-11-19T01:25:17;2.85;;;0.57;;
14235;SDS011;7202;50.718;7.072;2023-11-19T01:27:47;0.88;;;0.68;;
14235;SDS011;7202;50.718;7.072;2023-11-19T01:30:18;0.75;;;0.22;;
14235;SDS011;7202;50.718;7.072;2023-11-19T01:32:49;2.67;;;0.57;;
14235;SDS011;7202;50.718;7.072;2023-11-19T01:35:17;0.40;;;0.30;;
14235;SDS011;7202;50.718;7.072;2023-11-19T01:37:46;1.60;;;0.47;;
14235;SDS011;7202;50.718;7.072;2023-11-19T01:40:14;0.93;;;0.40;;
14235;SDS011;7202;50.718;7.072;2023-11-19T01:42:43;0.93;;;0.40;;
14235;SDS011;7202;50.718;7.072;2023-11-19T01:45:16;1.50;;;0.30;;
14235;SDS011;7202;50.718;7.072;2023-11-19T01:47:57;0.77;;;0.35;;
14235;SDS011;7202;50.718;7.072;2023-11-19T01:50:28;1.98;;;0.52;;
14235;SDS011;7202;50.718;7.072;2023-11-19T01:52:57;2.70;;;0.50;;
14235;SDS011;7202;50.718;7.072;2023-11-19T01:55:26;1.70;;;0.40;;
14235;SDS011;7202;50.718;7.072;2023-11-19T01:57:57;0.60;;;0.60;;
14235;SDS011;7202;50.718;7.072;2023-11-19T02:00:30;0.30;;;0.30;;
14235;SDS011;7202;50.718;7.072;2023-11-19T02:03:01;1.50;;;0.30;;
14235;SDS011;7202;50.718;7.072;2023-11-19T02:05:30;0.47;;;0.40;;
14235;SDS011;7202;50.718;7.072;2023-11-19T02:08:00;0.63;;;0.40;;
14235;SDS011;7202;50.718;7.072;2023-11-19T02:10:28;1.05;;;0.30;;
14235;SDS011;7202;50.718;7.072;2023-11-19T02:13:00;1.20;;;0.40;;
14235;SDS011;7202;50.718;7.072;2023-11-19T02:15:33;3.05;;;0.38;;
14235;SDS011;7202;50.718;7.072;2023-11-19T02:18:17;0.75;;;0.50;;
14235;SDS011;7202;50.718;7.072;2023-11-19T02:20:50;1.08;;;0.52;;
14235;SDS011;7202;50.718;7.072;2023-11-19T02:23:19;0.43;;;0.30;;
14235;SDS011;7202;50.718;7.072;2023-11-19T02:25:52;0.45;;;0.30;;
14235;SDS011;7202;50.718;7.072;2023-11-19T02:28:29;0.20;;;0.20;;
14235;SDS011;7202;50.718;7.072;2023-11-19T02:30:57;0.90;;;0.43;;
14235;SDS011;7202;50.718;7.072;2023-11-19T02:33:26;1.55;;;0.50;;
14235;SDS011;7202;50.718;7.072;2023-11-19T02:35:55;0.50;;;0.40;;
14235;SDS011;7202;50.718;7.072;2023-11-19T02:38:24;0.20;;;0.20;;
14235;SDS011;7202;50.718;7.072;2023-11-19T02:40:52;1.00;;;0.30;;
14235;SDS011;7202;50.718;7.072;2023-11-19T02:43:21;1.80;;;0.50;;
14235;SDS011;7202;50.718;7.072;2023-11-19T02:45:51;0.98;;;0.43;;
14235;SDS011;7202;50.718;7.072;2023-11-19T02:48:22;1.58;;;0.50;;
14235;SDS011;7202;50.718;7.072;2023-11-19T02:50:51;2.22;;;0.50;;
14235;SDS011;7202;50.718;7.072;2023-11-19T02:53:20;0.75;;;0.40;;
14235;SDS011;7202;50.718;7.072;2023-11-19T02:55:50;0.52;;;0.22;;
14235;SDS011;7202;50.718;7.072;2023-11-19T02:58:18;0.70;;;0.52;;
14235;SDS011;7202;50.718;7.072;2023-11-19T03:00:53;1.38;;;0.50;;
14235;SDS011;7202;50.718;7.072;2023-11-19T03:03:24;2.30;;;0.68;;
14235;SDS011;7202;50.718;7.072;2023-11-19T03:05:57;1.20;;;0.50;;
14235;SDS011;7202;50.718;7.072;2023-11-19T03:08:26;1.05;;;0.57;;
14235;SDS011;7202;50.718;7.072;2023-11-19T03:10:54;3.50;;;0.60;;
14235;SDS011;7202;50.718;7.072;2023-11-19T03:13:23;1.95;;;0.77;;
14235;SDS011;7202;50.718;7.072;2023-11-19T03:15:52;1.40;;;0.60;;
14235;SDS011;7202;50.718;7.072;2023-11-19T03:18:22;1.52;;;0.65;;
14235;SDS011;7202;50.718;7.072;2023-11-19T03:20:50;1.55;;;0.70;;
14235;SDS011;7202;50.718;7.072;2023-11-19T03:23:19;1.70;;;0.68;;
14235;SDS011;7202;50.718;7.072;2023-11-19T03:25:47;1.45;;;0.80;;
14235;SDS011;7202;50.718;7.072;2023-11-19T03:28:16;2.15;;;0.88;;
14235;SDS011;7202;50.718;7.072;2023-11-19T03:30:44;5.18;;;1.08;;
14235;SDS011;7202;50.718;7.072;2023-11-19T03:33:14;5.93;;;1.23;;
14235;SDS011;7202;50.718;7.072;2023-11-19T03:35:43;4.88;;;1.67;;
14235;SDS011;7202;50.718;7.072;2023-11-19T03:38:12;3.80;;;1.40;;
14235;SDS011;7202;50.718;7.072;2023-11-19T03:40:41;5.28;;;1.45;;
14235;SDS011;7202;50.718;7.072;2023-11-19T03:43:09;4.75;;;1.40;;
14235;SDS011;7202;50.718;7.072;2023-11-19T03:45:39;8.50;;;1.60;;
14235;SDS011;7202;50.718;7.072;2023-11-19T03:48:08;4.93;;;1.55;;
14235;SDS011;7202;50.718;7.072;2023-11-19T03:50:38;5.45;;;1.42;;
14235;SDS011;7202;50.718;7.072;2023-11-19T03:53:07;6.63;;;1.40;;
14235;SDS011;7202;50.718;7.072;2023-11-19T03:55:35;2.53;;;1.02;;
14235;SDS011;7202;50.718;7.072;2023-11-19T03:58:04;8.27;;;2.00;;
14235;SDS011;7202;50.718;7.072;2023-11-19T04:00:32;5.47;;;1.70;;
14235;SDS011;7202;50.718;7.072;2023-11-19T04:03:01;5.03;;;1.60;;
14235;SDS011;7202;50.718;7.072;2023-11-19T04:05:31;6.60;;;1.90;;
14235;SDS011;7202;50.718;7.072;2023-11-19T04:08:00;5.78;;;1.73;;
14235;SDS011;7202;50.718;7.072;2023-11-19T04:10:29;7.30;;;2.03;;
14235;SDS011;7202;50.718;7.072;2023-11-19T04:12:57;5.25;;;1.55;;
14235;SDS011;7202;50.718;7.072;2023-11-19T04:15:26;5.03;;;1.50;;
14235;SDS011;7202;50.718;7.072;2023-11-19T04:17:54;4.25;;;1.40;;
14235;SDS011;7202;50.718;7.072;2023-11-19T04:20:23;7.22;;;1.65;;
14235;SDS011;7202;50.718;7.072;2023-11-19T04:22:53;8.55;;;1.73;;
14235;SDS011;7202;50.718;7.072;2023-11-19T04:25:23;6.68;;;1.50;;
14235;SDS011;7202;50.718;7.072;2023-11-19T04:27:53;7.32;;;1.83;;
14235;SDS011;7202;50.718;7.072;2023-11-19T04:30:21;8.57;;;1.50;;
14235;SDS011;7202;50.718;7.072;2023-11-19T04:32:50;8.73;;;1.77;;
14235;SDS011;7202;50.718;7.072;2023-11-19T04:35:18;4.00;;;1.55;;
14235;SDS011;7202;50.718;7.072;2023-11-19T04:37:47;5.10;;;2.03;;
14235;SDS011;7202;50.718;7.072;2023-11-19T04:40:16;6.20;;;1.65;;
14235;SDS011;7202;50.718;7.072;2023-11-19T04:42:47;8.30;;;2.25;;
14235;SDS011;7202;50.718;7.072;2023-11-19T04:45:15;11.23;;;1.95;;
14235;SDS011;7202;50.718;7.072;2023-11-19T04:47:44;7.38;;;1.50;;
14235;SDS011;7202;50.718;7.072;2023-11-19T04:50:13;8.27;;;2.10;;
14235;SDS011;7202;50.718;7.072;2023-11-19T04:52:41;5.25;;;1.77;;
14235;SDS011;7202;50.718;7.072;2023-11-19T04:55:12;6.85;;;1.60;;
14235;SDS011;7202;50.718;7.072;2023-11-19T04:57:41;4.05;;;1.20;;
14235;SDS011;7202;50.718;7.072;2023-11-19T05:00:12;7.72;;;1.30;;
14235;SDS011;7202;50.718;7.072;2023-11-19T05:02:43;6.38;;;1.60;;
14235;SDS011;7202;50.718;7.072;2023-11-19T05:05:12;5.95;;;1.30;;
14235;SDS011;7202;50.718;7.072;2023-11-19T05:07:41;5.68;;;1.85;;
14235;SDS011;7202;50.718;7.072;2023-11-19T05:10:09;11.02;;;1.85;;
14235;SDS011;7202;50.718;7.072;2023-11-19T05:12:38;8.77;;;1.65;;
14235;SDS011;7202;50.718;7.072;2023-11-19T05:15:08;8.65;;;1.90;;
14235;SDS011;7202;50.718;7.072;2023-11-19T05:17:40;9.02;;;1.55;;
14235;SDS011;7202;50.718;7.072;2023-11-19T05:20:08;11.07;;;1.70;;
14235;SDS011;7202;50.718;7.072;2023-11-19T05:22:40;6.10;;;1.63;;
14235;SDS011;7202;50.718;7.072;2023-11-19T05:25:09;3.47;;;1.23;;
14235;SDS011;7202;50.718;7.072;2023-11-19T05:27:40;7.13;;;1.73;;
14235;SDS011;7202;50.718;7.072;2023-11-19T05:30:09;6.85;;;1.65;;
14235;SDS011;7202;50.718;7.072;2023-11-19T05:32:39;5.82;;;1.55;;
14235;SDS011;7202;50.718;7.072;2023-11-19T05:35:08;7.97;;;1.60;;
14235;SDS011;7202;50.718;7.072;2023-11-19T05:37:36;11.55;;;1.95;;
14235;SDS011;7202;50.718;7.072;2023-11-19T05:40:06;4.72;;;1.30;;
14235;SDS011;7202;50.718;7.072;2023-11-19T05:42:41;5.57;;;1.90;;
14235;SDS011;7202;50.718;7.072;2023-11-19T05:45:10;5.47;;;1.75;;
14235;SDS011;7202;50.718;7.072;2023-11-19T05:47:41;9.77;;;2.25;;
14235;SDS011;7202;50.718;7.072;2023-11-19T05:50:10;9.13;;;1.85;;
14235;SDS011;7202;50.718;7.072;2023-11-19T05:52:39;8.25;;;2.05;;
14235;SDS011;7202;50.718;7.072;2023-11-19T05:55:07;9.68;;;2.30;;
14235;SDS011;7202;50.718;7.072;2023-11-19T05:57:37;9.02;;;1.85;;
14235;SDS011;7202;50.718;7.072;2023-11-19T06:00:10;12.00;;;2.05;;
14235;SDS011;7202;50.718;7.072;2023-11-19T06:02:42;11.73;;;1.90;;
14235;SDS011;7202;50.718;7.072;2023-11-19T06:05:10;9.07;;;2.03;;
14235;SDS011;7202;50.718;7.072;2023-11-19T06:07:39;9.35;;;2.28;;
14235;SDS011;7202;50.718;7.072;2023-11-19T06:10:08;8.60;;;1.75;;
14235;SDS011;7202;50.718;7.072;2023-11-19T06:12:39;11.98;;;2.28;;
14235;SDS011;7202;50.718;7.072;2023-11-19T06:15:08;7.57;;;2.17;;
14235;SDS011;7202;50.718;7.072;2023-11-19T06:17:38;8.52;;;1.95;;
14235;SDS011;7202;50.718;7.072;2023-11-19T06:20:09;14.60;;;3.17;;
14235;SDS011;7202;50.718;7.072;2023-11-19T06:22:38;8.90;;;2.08;;
14235;SDS011;7202;50.718;7.072;2023-11-19T06:25:09;10.18;;;2.63;;
14235;SDS011;7202;50.718;7.072;2023-11-19T06:27:39;8.27;;;2.20;;
14235;SDS011;7202;50.718;7.072;2023-11-19T06:30:08;10.75;;;2.53;;
14235;SDS011;7202;50.718;7.072;2023-11-19T06:32:37;9.77;;;2.65;;
14235;SDS011;7202;50.718;7.072;2023-11-19T06:35:06;11.80;;;2.17;;
14235;SDS011;7202;50.718;7.072;2023-11-19T06:37:38;12.50;;;2.88;;
14235;SDS011;7202;50.718;7.072;2023-11-19T06:40:07;7.57;;;2.63;;
14235;SDS011;7202;50.718;7.072;2023-11-19T06:42:37;11.60;;;2.33;;
14235;SDS011;7202;50.718;7.072;2023-11-19T06:45:06;11.05;;;2.42;;
14235;SDS011;7202;50.718;7.072;2023-11-19T06:47:34;8.05;;;2.08;;
14235;SDS011;7202;50.718;7.072;2023-11-19T06:50:03;9.32;;;2.25;;
14235;SDS011;7202;50.718;7.072;2023-11-19T06:52:34;8.18;;;2.47;;
14235;SDS011;7202;50.718;7.072;2023-11-19T06:55:05;11.10;;;2.75;;
14235;SDS011;7202;50.718;7.072;2023-11-19T06:57:35;13.60;;;3.85;;
14235;SDS011;7202;50.718;7.072;2023-11-19T07:00:04;11.38;;;2.55;;
14235;SDS011;7202;50.718;7.072;2023-11-19T07:02:35;14.55;;;2.75;;
14235;SDS011;7202;50.718;7.072;2023-11-19T07:05:04;17.13;;;2.85;;
14235;SDS011;7202;50.718;7.072;2023-11-19T07:07:33;11.48;;;2.15;;
14235;SDS011;7202;50.718;7.072;2023-11-19T07:10:02;10.10;;;2.70;;
14235;SDS011;7202;50.718;7.072;2023-11-19T07:12:33;12.30;;;2.67;;
14235;SDS011;7202;50.718;7.072;2023-11-19T07:15:02;8.40;;;2.30;;
14235;SDS011;7202;50.718;7.072;2023-11-19T07:17:32;8.20;;;2.38;;
14235;SDS011;7202;50.718;7.072;2023-11-19T07:20:02;8.43;;;2.13;;
14235;SDS011;7202;50.718;7.072;2023-11-19T07:22:32;11.10;;;2.90;;
14235;SDS011;7202;50.718;7.072;2023-11-19T07:25:01;16.88;;;2.60;;
14235;SDS011;7202;50.718;7.072;2023-11-19T07:27:30;10.25;;;2.95;;
14235;SDS011;7202;50.718;7.072;2023-11-19T07:29:59;9.38;;;2.45;;
14235;SDS011;7202;50.718;7.072;2023-11-19T07:32:28;14.35;;;2.88;;
14235;SDS011;7202;50.718;7.072;2023-11-19T07:34:57;9.95;;;2.15;;
14235;SDS011;7202;50.718;7.072;2023-11-19T07:37:26;10.65;;;2.92;;
14235;SDS011;7202;50.718;7.072;2023-11-19T07:39:54;12.50;;;2.42;;
14235;SDS011;7202;50.718;7.072;2023-11-19T07:42:23;10.07;;;2.50;;
14235;SDS011;7202;50.718;7.072;2023-11-19T07:44:51;11.13;;;2.45;;
14235;SDS011;7202;50.718;7.072;2023-11-19T07:47:22;15.65;;;3.00;;
14235;SDS011;7202;50.718;7.072;2023-11-19T07:49:51;8.82;;;2.70;;
14235;SDS011;7202;50.718;7.072;2023-11-19T07:52:19;8.60;;;2.38;;
14235;SDS011;7202;50.718;7.072;2023-11-19T07:54:48;13.85;;;3.15;;
14235;SDS011;7202;50.718;7.072;2023-11-19T07:57:17;10.00;;;2.55;;
14235;SDS011;7202;50.718;7.072;2023-11-19T07:59:45;16.98;;;2.50;;
14235;SDS011;7202;50.718;7.072;2023-11-19T08:02:14;15.38;;;3.15;;
14235;SDS011;7202;50.718;7.072;2023-11-19T08:04:44;10.13;;;2.78;;
14235;SDS011;7202;50.718;7.072;2023-11-19T08:07:13;13.38;;;2.95;;
14235;SDS011;7202;50.718;7.072;2023-11-19T08:09:41;9.00;;;2.40;;
14235;SDS011;7202;50.718;7.072;2023-11-19T08:12:10;15.02;;;2.58;;
14235;SDS011;7202;50.718;7.072;2023-11-19T08:14:40;15.80;;;2.58;;
14235;SDS011;7202;50.718;7.072;2023-11-19T08:17:09;10.30;;;3.47;;
14235;SDS011;7202;50.718;7.072;2023-11-19T08:19:38;16.45;;;3.55;;
14235;SDS011;7202;50.718;7.072;2023-11-19T08:22:08;9.85;;;2.70;;
14235;SDS011;7202;50.718;7.072;2023-11-19T08:24:36;10.40;;;2.97;;
14235;SDS011;7202;50.718;7.072;2023-11-19T08:27:05;14.50;;;3.20;;
14235;SDS011;7202;50.718;7.072;2023-11-19T08:29:33;12.98;;;2.85;;
14235;SDS011;7202;50.718;7.072;2023-11-19T08:32:02;13.75;;;3.03;;
14235;SDS011;7202;50.718;7.072;2023-11-19T08:34:31;11.68;;;3.05;;
14235;SDS011;7202;50.718;7.072;2023-11-19T08:37:00;14.27;;;3.08;;
14235;SDS011;7202;50.718;7.072;2023-11-19T08:39:29;15.93;;;3.15;;
14235;SDS011;7202;50.718;7.072;2023-11-19T08:41:58;14.40;;;2.92;;
14235;SDS011;7202;50.718;7.072;2023-11-19T08:44:26;11.90;;;2.95;;
14235;SDS011;7202;50.718;7.072;2023-11-19T08:46:57;12.15;;;2.70;;
14235;SDS011;7202;50.718;7.072;2023-11-19T08:49:25;10.25;;;2.63;;
14235;SDS011;7202;50.718;7.072;2023-11-19T08:51:54;11.23;;;2.80;;
14235;SDS011;7202;50.718;7.072;2023-11-19T08:54:22;15.68;;;3.22;;
14235;SDS011;7202;50.718;7.072;2023-11-19T08:56:52;11.40;;;2.75;;
14235;SDS011;7202;50.718;7.072;2023-11-19T08:59:21;15.63;;;2.78;;
14235;SDS011;7202;50.718;7.072;2023-11-19T09:01:49;17.23;;;3.30;;
14235;SDS011;7202;50.718;7.072;2023-11-19T09:04:18;18.20;;;3.45;;
14235;SDS011;7202;50.718;7.072;2023-11-19T09:06:49;17.98;;;2.78;;
14235;SDS011;7202;50.718;7.072;2023-11-19T09:09:17;13.07;;;2.90;;
14235;SDS011;7202;50.718;7.072;2023-11-19T09:11:46;12.02;;;2.47;;
14235;SDS011;7202;50.718;7.072;2023-11-19T09:14:16;14.13;;;3.10;;
14235;SDS011;7202;50.718;7.072;2023-11-19T09:16:45;14.93;;;3.35;;
14235;SDS011;7202;50.718;7.072;2023-11-19T09:19:13;12.90;;;3.25;;
14235;SDS011;7202;50.718;7.072;2023-11-19T09:21:42;17.23;;;3.50;;
14235;SDS011;7202;50.718;7.072;2023-11-19T09:24:11;14.68;;;4.35;;
14235;SDS011;7202;50.718;7.072;2023-11-19T09:26:42;15.90;;;2.92;;
14235;SDS011;7202;50.718;7.072;2023-11-19T09:29:11;12.82;;;2.50;;
14235;SDS011;7202;50.718;7.072;2023-11-19T09:31:42;15.25;;;3.00;;
14235;SDS011;7202;50.718;7.072;2023-11-19T09:34:11;12.32;;;3.47;;
14235;SDS011;7202;50.718;7.072;2023-11-19T09:36:39;22.50;;;3.20;;
14235;SDS011;7202;50.718;7.072;2023-11-19T09:39:11;13.77;;;3.58;;
14235;SDS011;7202;50.718;7.072;2023-11-19T09:41:41;18.67;;;3.75;;
14235;SDS011;7202;50.718;7.072;2023-11-19T09:44:11;12.45;;;2.83;;
14235;SDS011;7202;50.718;7.072;2023-11-19T09:46:42;14.75;;;3.03;;
14235;SDS011;7202;50.718;7.072;2023-11-19T09:49:11;14.65;;;3.78;;
14235;SDS011;7202;50.718;7.072;2023-11-19T09:51:41;14.40;;;3.15;;
14235;SDS011;7202;50.718;7.072;2023-11-19T09:54:09;12.57;;;3.25;;
14235;SDS011;7202;50.718;7.072;2023-11-19T09:56:39;12.95;;;2.60;;
14235;SDS011;7202;50.718;7.072;2023-11-19T09:59:08;11.32;;;2.58;;
14235;SDS011;7202;50.718;7.072;2023-11-19T10:01:38;11.07;;;3.35;;
14235;SDS011;7202;50.718;7.072;2023-11-19T10:04:08;14.65;;;3.20;;
14235;SDS011;7202;50.718;7.072;2023-11-19T10:06:37;14.63;;;3.13;;
14235;SDS011;7202;50.718;7.072;2023-11-19T10:09:06;11.05;;;2.97;;
14235;SDS011;7202;50.718;7.072;2023-11-19T10:11:34;12.43;;;3.10;;
14235;SDS011;7202;50.718;7.072;2023-11-19T10:14:03;12.25;;;3.00;;
14235;SDS011;7202;50.718;7.072;2023-11-19T10:16:34;16.92;;;3.15;;
14235;SDS011;7202;50.718;7.072;2023-11-19T10:19:02;16.95;;;3.60;;
14235;SDS011;7202;50.718;7.072;2023-11-19T10:21:33;13.32;;;2.83;;
14235;SDS011;7202;50.718;7.072;2023-11-19T10:24:03;15.38;;;3.10;;
14235;SDS011;7202;50.718;7.072;2023-11-19T10:26:32;15.82;;;3.17;;
14235;SDS011;7202;50.718;7.072;2023-11-19T10:29:01;11.02;;;2.85;;
14235;SDS011;7202;50.718;7.072;2023-11-19T10:31:30;15.00;;;3.90;;
14235;SDS011;7202;50.718;7.072;2023-11-19T10:33:59;15.30;;;3.20;;
14235;SDS011;7202;50.718;7.072;2023-11-19T10:36:38;18.75;;;3.67;;
14235;SDS011;7202;50.718;7.072;2023-11-19T10:39:08;20.52;;;3.70;;
14235;SDS011;7202;50.718;7.072;2023-11-19T10:41:37;14.52;;;3.33;;
14235;SDS011;7202;50.718;7.072;2023-11-19T10:44:06;13.85;;;2.72;;
14235;SDS011;7202;50.718;7.072;2023-11-19T10:46:36;15.15;;;3.45;;
14235;SDS011;7202;50.718;7.072;2023-11-19T10:49:07;14.57;;;3.00;;
14235;SDS011;7202;50.718;7.072;2023-11-19T10:51:36;17.15;;;4.55;;
14235;SDS011;7202;50.718;7.072;2023-11-19T10:54:06;16.17;;;3.17;;
14235;SDS011;7202;50.718;7.072;2023-11-19T10:56:36;10.45;;;2.83;;
14235;SDS011;7202;50.718;7.072;2023-11-19T10:59:05;16.10;;;3.58;;
14235;SDS011;7202;50.718;7.072;2023-11-19T11:01:39;11.50;;;2.78;;
14235;SDS011;7202;50.718;7.072;2023-11-19T11:04:13;15.60;;;2.95;;
14235;SDS011;7202;50.718;7.072;2023-11-19T11:06:43;10.30;;;2.60;;
14235;SDS011;7202;50.718;7.072;2023-11-19T11:09:12;12.38;;;2.90;;
14235;SDS011;7202;50.718;7.072;2023-11-19T11:11:42;10.93;;;2.85;;
14235;SDS011;7202;50.718;7.072;2023-11-19T11:14:15;14.35;;;2.80;;
14235;SDS011;7202;50.718;7.072;2023-11-19T11:16:46;16.50;;;3.40;;
14235;SDS011;7202;50.718;7.072;2023-11-19T11:19:16;16.50;;;3.28;;
14235;SDS011;7202;50.718;7.072;2023-11-19T11:21:46;15.38;;;3.42;;
14235;SDS011;7202;50.718;7.072;2023-11-19T11:24:29;14.32;;;2.83;;
14235;SDS011;7202;50.718;7.072;2023-11-19T11:27:16;14.98;;;3.38;;
14235;SDS011;7202;50.718;7.072;2023-11-19T11:30:04;12.82;;;3.13;;
14235;SDS011;7202;50.718;7.072;2023-11-19T11:32:40;9.85;;;2.55;;
14235;SDS011;7202;50.718;7.072;2023-11-19T11:35:21;12.13;;;2.75;;
14235;SDS011;7202;50.718;7.072;2023-11-19T11:37:58;17.60;;;3.10;;
14235;SDS011;7202;50.718;7.072;2023-11-19T11:40:32;13.52;;;2.72;;
14235;SDS011;7202;50.718;7.072;2023-11-19T11:43:00;10.05;;;2.35;;
14235;SDS011;7202;50.718;7.072;2023-11-19T11:45:36;14.18;;;3.20;;
14235;SDS011;7202;50.718;7.072;2023-11-19T11:48:15;15.23;;;2.65;;
14235;SDS011;7202;50.718;7.072;2023-11-19T11:50:50;9.90;;;2.20;;
14235;SDS011;7202;50.718;7.072;2023-11-19T11:53:25;11.18;;;2.28;;
14235;SDS011;7202;50.718;7.072;2023-11-19T11:55:56;12.98;;;2.72;;
14235;SDS011;7202;50.718;7.072;2023-11-19T11:58:30;10.18;;;2.63;;
14235;SDS011;7202;50.718;7.072;2023-11-19T12:01:03;10.60;;;2.65;;
14235;SDS011;7202;50.718;7.072;2023-11-19T12:03:36;11.55;;;2.95;;
14235;SDS011;7202;50.718;7.072;2023-11-19T12:06:06;12.55;;;2.95;;
14235;SDS011;7202;50.718;7.072;2023-11-19T12:08:36;18.05;;;3.78;;
14235;SDS011;7202;50.718;7.072;2023-11-19T12:11:08;10.63;;;2.83;;
14235;SDS011;7202;50.718;7.072;2023-11-19T12:13:52;9.63;;;2.80;;
14235;SDS011;7202;50.718;7.072;2023-11-19T12:16:25;8.90;;;2.22;;
14235;SDS011;7202;50.718;7.072;2023-11-19T12:18:56;16.33;;;3.22;;
14235;SDS011;7202;50.718;7.072;2023-11-19T12:21:31;12.07;;;2.90;;
14235;SDS011;7202;50.718;7.072;2023-11-19T12:24:00;22.02;;;5.10;;
14235;SDS011;7202;50.718;7.072;2023-11-19T12:26:36;13.63;;;2.72;;
14235;SDS011;7202;50.718;7.072;2023-11-19T12:29:06;10.43;;;2.80;;
14235;SDS011;7202;50.718;7.072;2023-11-19T12:31:36;10.27;;;2.70;;
14235;SDS011;7202;50.718;7.072;2023-11-19T12:34:06;13.25;;;3.40;;
14235;SDS011;7202;50.718;7.072;2023-11-19T12:36:39;13.00;;;3.10;;
14235;SDS011;7202;50.718;7.072;2023-11-19T12:39:09;7.30;;;1.98;;
14235;SDS011;7202;50.718;7.072;2023-11-19T12:41:53;11.55;;;2.72;;
14235;SDS011;7202;50.718;7.072;2023-11-19T12:44:22;8.07;;;2.03;;
14235;SDS011;7202;50.718;7.072;2023-11-19T12:47:00;11.95;;;3.47;;
14235;SDS011;7202;50.718;7.072;2023-11-19T12:49:30;15.45;;;3.00;;
14235;SDS011;7202;50.718;7.072;2023-11-19T12:51:58;14.52;;;2.35;;
14235;SDS011;7202;50.718;7.072;2023-11-19T12:54:34;9.85;;;2.95;;
14235;SDS011;7202;50.718;7.072;2023-11-19T12:57:05;12.07;;;2.58;;
14235;SDS011;7202;50.718;7.072;2023-11-19T12:59:35;10.30;;;2.28;;
14235;SDS011;7202;50.718;7.072;2023-11-19T13:02:03;13.75;;;2.33;;
14235;SDS011;7202;50.718;7.072;2023-11-19T13:04:33;7.57;;;2.25;;
14235;SDS011;7202;50.718;7.072;2023-11-19T13:07:02;11.07;;;2.22;;
14235;SDS011;7202;50.718;7.072;2023-11-19T13:09:32;12.93;;;2.53;;
14235;SDS011;7202;50.718;7.072;2023-11-19T13:12:11;9.30;;;2.40;;
14235;SDS011;7202;50.718;7.072;2023-11-19T13:14:42;14.50;;;3.15;;
14235;SDS011;7202;50.718;7.072;2023-11-19T13:17:13;15.80;;;2.47;;
14235;SDS011;7202;50.718;7.072;2023-11-19T13:19:42;11.80;;;2.45;;
14235;SDS011;7202;50.718;7.072;2023-11-19T13:22:11;10.55;;;2.40;;
14235;SDS011;7202;50.718;7.072;2023-11-19T13:24:39;15.90;;;3.10;;
14235;SDS011;7202;50.718;7.072;2023-11-19T13:27:09;12.00;;;2.28;;
14235;SDS011;7202;50.718;7.072;2023-11-19T13:29:39;14.55;;;3.13;;
14235;SDS011;7202;50.718;7.072;2023-11-19T13:32:08;12.45;;;2.90;;
14235;SDS011;7202;50.718;7.072;2023-11-19T13:34:36;16.90;;;3.58;;
14235;SDS011;7202;50.718;7.072;2023-11-19T13:37:06;12.75;;;2.80;;
14235;SDS011;7202;50.718;7.072;2023-11-19T13:39:35;14.35;;;2.97;;
14235;SDS011;7202;50.718;7.072;2023-11-19T13:42:04;14.43;;;2.15;;
14235;SDS011;7202;50.718;7.072;2023-11-19T13:44:35;12.07;;;3.15;;
14235;SDS011;7202;50.718;7.072;2023-11-19T13:47:05;14.00;;;2.78;;
14235;SDS011;7202;50.718;7.072;2023-11-19T13:49:34;8.88;;;2.17;;
14235;SDS011;7202;50.718;7.072;2023-11-19T13:52:03;14.02;;;3.83;;
14235;SDS011;7202;50.718;7.072;2023-11-19T13:54:32;16.85;;;3.17;;
14235;SDS011;7202;50.718;7.072;2023-11-19T13:57:00;13.15;;;3.17;;
14235;SDS011;7202;50.718;7.072;2023-11-19T13:59:30;17.83;;;3.05;;
14235;SDS011;7202;50.718;7.072;2023-11-19T14:02:00;15.38;;;2.97;;
14235;SDS011;7202;50.718;7.072;2023-11-19T14:04:30;11.38;;;2.40;;
14235;SDS011;7202;50.718;7.072;2023-11-19T14:06:59;10.52;;;2.35;;
14235;SDS011;7202;50.718;7.072;2023-11-19T14:09:27;9.15;;;2.55;;
14235;SDS011;7202;50.718;7.072;2023-11-19T14:11:56;14.73;;;2.75;;
14235;SDS011;7202;50.718;7.072;2023-11-19T14:14:24;16.08;;;4.10;;
14235;SDS011;7202;50.718;7.072;2023-11-19T14:16:53;13.45;;;2.97;;
14235;SDS011;7202;50.718;7.072;2023-11-19T14:19:41;12.45;;;2.45;;
14235;SDS011;7202;50.718;7.072;2023-11-19T14:22:10;9.15;;;2.50;;
14235;SDS011;7202;50.718;7.072;2023-11-19T14:24:39;15.32;;;2.80;;
14235;SDS011;7202;50.718;7.072;2023-11-19T14:27:09;11.15;;;2.85;;
14235;SDS011;7202;50.718;7.072;2023-11-19T14:29:38;8.60;;;2.88;;
14235;SDS011;7202;50.718;7.072;2023-11-19T14:32:07;11.38;;;2.70;;
14235;SDS011;7202;50.718;7.072;2023-11-19T14:34:35;8.18;;;2.10;;
14235;SDS011;7202;50.718;7.072;2023-11-19T14:37:05;15.48;;;2.97;;
14235;SDS011;7202;50.718;7.072;2023-11-19T14:39:34;11.48;;;2.63;;
14235;SDS011;7202;50.718;7.072;2023-11-19T14:42:03;15.57;;;2.78;;
14235;SDS011;7202;50.718;7.072;2023-11-19T14:44:32;9.55;;;2.50;;
14235;SDS011;7202;50.718;7.072;2023-11-19T14:47:00;9.85;;;2.03;;
14235;SDS011;7202;50.718;7.072;2023-11-19T14:49:30;11.52;;;2.40;;
14235;SDS011;7202;50.718;7.072;2023-11-19T14:51:58;10.00;;;2.22;;
14235;SDS011;7202;50.718;7.072;2023-11-19T14:54:31;12.95;;;2.00;;
14235;SDS011;7202;50.718;7.072;2023-11-19T14:57:00;9.15;;;2.38;;
14235;SDS011;7202;50.718;7.072;2023-11-19T14:59:29;10.68;;;1.98;;
14235;SDS011;7202;50.718;7.072;2023-11-19T15:01:59;7.85;;;2.10;;
14235;SDS011;7202;50.718;7.072;2023-11-19T15:04:29;11.57;;;2.00;;
14235;SDS011;7202;50.718;7.072;2023-11-19T15:06:58;8.25;;;2.35;;
14235;SDS011;7202;50.718;7.072;2023-11-19T15:09:27;8.30;;;1.70;;
14235;SDS011;7202;50.718;7.072;2023-11-19T15:11:57;6.53;;;1.42;;